Oakwood, Virginia
Current Conditions -  °F | °C
As of 8:15 PM on Sunday 23 Nov 2014 (Local Time) from KJFZ Reporting Station
Moderate Rain Moderate Rain  
Wind Chill: 56°   Ceiling: 7000
Heat Index: 56°   Visibility: 4mi
Dew Point: 53°   Wind: 16mph
Humidity: 90%   Direction: 140°SE
Pressure: 29.67"   Gusts: 36mph
Location:  37.2°N, 82°W
Report Text: KJFZ 240115Z AUTO 14014G31KT 130V190 4SM RA SCT020 BKN070 OVC100 13/12 A2967 RMK AO2 P0005 T01310115
Loading
Personal Weather Stations






























Interactive Weather Map New forecast layout! Learn more

10-Day Weather Forecast

Advertisements
Track Severe Weather on mobile